createdAt,value
2022-08-05T00:00:06.680Z,2.00
2022-08-05T00:05:10.103Z,1.63
2022-08-05T00:10:34.372Z,2.03
2022-08-05T00:15:55.201Z,1.92
2022-08-05T00:21:00.984Z,2.10
2022-08-05T00:26:06.050Z,2.17
2022-08-05T00:31:09.453Z,2.00
2022-08-05T00:36:16.048Z,2.10
2022-08-05T00:41:52.249Z,1.93
2022-08-05T00:47:01.990Z,2.03
2022-08-05T00:52:07.319Z,2.05
2022-08-05T00:57:11.531Z,2.20
2022-08-05T01:02:14.500Z,2.10
2022-08-05T01:07:19.510Z,2.03
2022-08-05T01:12:29.772Z,1.98
2022-08-05T01:17:39.855Z,1.90
2022-08-05T01:22:57.340Z,2.30
2022-08-05T01:28:18.889Z,2.13
2022-08-05T01:33:35.413Z,2.05
2022-08-05T01:38:39.734Z,2.42
2022-08-05T01:43:44.755Z,2.08
2022-08-05T01:48:54.288Z,2.17
2022-08-05T01:53:59.130Z,2.00
2022-08-05T01:59:10.833Z,2.17
2022-08-05T02:04:17.647Z,2.30
2022-08-05T02:09:20.910Z,2.35
2022-08-05T02:14:31.955Z,1.93
2022-08-05T02:19:42.682Z,2.10
2022-08-05T02:24:53.417Z,1.88
2022-08-05T02:30:00.731Z,2.28
2022-08-05T02:35:13.674Z,1.85
2022-08-05T02:40:18.461Z,2.05
2022-08-05T02:45:24.379Z,2.33
2022-08-05T02:50:29.622Z,2.08
2022-08-05T02:55:54.376Z,2.00
2022-08-05T03:01:00.369Z,2.10
2022-08-05T03:06:56.395Z,2.05
2022-08-05T03:11:55.462Z,2.03
2022-08-05T03:16:53.461Z,2.25
2022-08-05T03:21:56.410Z,2.38
2022-08-05T03:27:01.461Z,2.22
2022-08-05T03:32:07.923Z,2.22
2022-08-05T03:37:11.777Z,2.30
2022-08-05T03:42:17.201Z,2.25
2022-08-05T03:47:21.670Z,1.92
2022-08-05T03:52:38.610Z,2.40
2022-08-05T03:57:54.673Z,2.63
2022-08-05T04:03:02.840Z,2.40
2022-08-05T04:08:14.549Z,2.63
2022-08-05T04:13:51.351Z,2.35
2022-08-05T04:18:58.086Z,2.53
2022-08-05T04:24:06.776Z,2.95
2022-08-05T04:29:11.762Z,2.40
2022-08-05T04:34:31.696Z,2.45
2022-08-05T04:39:37.276Z,2.20
2022-08-05T04:44:40.168Z,2.13
2022-08-05T04:50:02.067Z,2.10
2022-08-05T04:55:14.716Z,2.37
2022-08-05T05:00:18.641Z,1.98
2022-08-05T05:05:28.715Z,2.55
2022-08-05T05:10:33.847Z,2.20
2022-08-05T05:15:56.194Z,2.50
2022-08-05T05:21:02.387Z,1.98
2022-08-05T05:26:06.353Z,2.67
2022-08-05T05:31:09.182Z,2.38
2022-08-05T05:36:14.642Z,2.65
2022-08-05T05:41:17.724Z,2.90
2022-08-05T05:46:21.766Z,2.60
2022-08-05T05:51:28.090Z,2.58
2022-08-05T05:56:34.828Z,2.83
2022-08-05T06:01:41.334Z,2.38
2022-08-05T06:07:02.126Z,2.47
2022-08-05T06:12:05.715Z,2.78
2022-08-05T06:17:24.523Z,2.60
2022-08-05T06:22:30.614Z,2.60
2022-08-05T06:28:10.840Z,2.65
2022-08-05T06:32:59.871Z,2.60
2022-08-05T06:38:11.190Z,3.10
2022-08-05T06:43:57.478Z,2.45
2022-08-05T06:48:54.660Z,3.08
2022-08-05T06:54:04.901Z,3.03
2022-08-05T06:59:09.919Z,2.75
2022-08-05T07:04:14.864Z,3.00
2022-08-05T07:09:24.936Z,2.65
2022-08-05T07:14:45.250Z,2.80
2022-08-05T07:20:31.312Z,2.80
2022-08-05T07:25:54.433Z,2.85
2022-08-05T07:30:39.179Z,2.42
2022-08-05T07:36:05.058Z,2.40
2022-08-05T07:42:07.098Z,2.47
2022-08-05T07:46:33.767Z,2.35
2022-08-05T07:51:48.635Z,2.60
2022-08-05T07:57:02.072Z,2.58
2022-08-05T08:02:18.332Z,2.60
2022-08-05T08:07:22.747Z,2.40
2022-08-05T08:12:39.387Z,2.30
2022-08-05T08:17:52.441Z,2.40
2022-08-05T08:22:59.076Z,2.65
2022-08-05T08:28:07.382Z,2.50
2022-08-05T08:33:21.432Z,2.53
2022-08-05T08:38:35.308Z,2.65
2022-08-05T08:45:19.497Z,2.65
2022-08-05T08:50:22.603Z,2.80
2022-08-05T08:54:29.342Z,2.35
2022-08-05T08:59:34.190Z,2.78
2022-08-05T09:04:58.178Z,2.53
2022-08-05T09:10:01.584Z,2.70
2022-08-05T09:15:07.482Z,3.10
2022-08-05T09:20:12.770Z,2.60
2022-08-05T09:26:03.111Z,2.60
2022-08-05T09:30:56.288Z,2.67
2022-08-05T09:36:03.681Z,2.70
2022-08-05T09:41:10.838Z,2.60
2022-08-05T09:46:28.580Z,2.35
2022-08-05T09:51:38.075Z,2.08
2022-08-05T09:56:52.320Z,2.40
2022-08-05T10:01:58.331Z,2.47
2022-08-05T10:07:06.093Z,2.78
2022-08-05T10:12:31.582Z,2.47
2022-08-05T10:22:48.676Z,2.20
2022-08-05T10:28:16.645Z,2.67
2022-08-05T10:38:22.854Z,2.58
2022-08-05T10:43:42.132Z,2.50
2022-08-05T10:48:57.450Z,2.20
2022-08-05T10:54:23.234Z,2.70
2022-08-05T11:04:57.265Z,2.35
2022-08-05T11:10:04.101Z,2.30
2022-08-05T11:16:01.031Z,2.42
2022-08-05T11:20:51.323Z,2.38
2022-08-05T11:26:09.307Z,2.10
2022-08-05T11:31:56.418Z,2.20
2022-08-05T11:37:00.870Z,2.42
2022-08-05T11:42:10.532Z,2.33
2022-08-05T11:47:49.963Z,2.20
2022-08-05T11:52:52.029Z,2.10
2022-08-05T11:58:10.087Z,2.15
2022-08-05T12:03:28.448Z,2.38
2022-08-05T12:08:47.960Z,2.33
2022-08-05T12:13:55.843Z,1.80
2022-08-05T12:19:01.751Z,2.22
2022-08-05T12:24:08.105Z,2.10
2022-08-05T12:29:16.368Z,2.45
2022-08-05T12:34:23.747Z,2.13
2022-08-05T12:39:34.447Z,2.03
2022-08-05T12:44:41.591Z,2.58
2022-08-05T12:50:03.355Z,2.50
2022-08-05T13:02:01.592Z,2.63
2022-08-05T13:05:52.773Z,2.60
2022-08-05T13:16:12.515Z,2.25
2022-08-05T13:21:18.363Z,2.30
2022-08-05T13:26:30.137Z,2.25
2022-08-05T13:31:33.825Z,2.35
2022-08-05T13:36:56.416Z,2.22
2022-08-05T13:42:00.598Z,2.75
2022-08-05T13:47:08.847Z,2.90
2022-08-05T13:52:13.005Z,2.58
2022-08-05T13:57:17.729Z,2.80
2022-08-05T14:02:26.495Z,2.80
2022-08-05T14:08:01.115Z,2.65
2022-08-05T14:12:59.640Z,2.13
2022-08-05T14:18:03.861Z,2.40
2022-08-05T14:23:06.810Z,2.28
2022-08-05T14:28:25.945Z,2.50
2022-08-05T14:33:56.264Z,2.17
2022-08-05T14:38:54.410Z,2.20
2022-08-05T14:44:09.755Z,2.40
2022-08-05T14:49:21.501Z,2.60
2022-08-05T14:54:27.575Z,2.78
2022-08-05T14:59:35.655Z,2.22
2022-08-05T15:04:38.837Z,2.40
2022-08-05T15:09:51.198Z,2.40
2022-08-05T15:14:58.754Z,2.25
2022-08-05T15:20:01.582Z,2.25
2022-08-05T15:25:11.425Z,2.70
2022-08-05T15:30:16.717Z,2.75
2022-08-05T15:35:21.885Z,2.40
2022-08-05T15:40:58.489Z,2.08
2022-08-05T15:46:00.487Z,2.65
2022-08-05T15:51:05.872Z,2.70
2022-08-05T15:56:14.175Z,2.63
2022-08-05T16:01:20.173Z,2.63
2022-08-05T16:06:32.094Z,2.40
2022-08-05T16:11:39.958Z,2.67
2022-08-05T16:16:48.465Z,2.30
2022-08-05T16:22:00.090Z,2.40
2022-08-05T16:27:04.959Z,2.50
2022-08-05T16:32:11.641Z,2.75
2022-08-05T16:38:02.364Z,2.53
2022-08-05T16:42:37.329Z,3.38
2022-08-05T16:47:53.487Z,2.40
2022-08-05T16:53:12.559Z,2.58
2022-08-05T16:58:25.602Z,2.30
2022-08-05T17:03:30.630Z,2.00
2022-08-05T17:08:52.435Z,2.25
2022-08-05T17:19:10.831Z,2.10
2022-08-05T17:24:29.166Z,2.03
2022-08-05T17:29:41.307Z,3.80
2022-08-05T17:34:48.081Z,2.67
2022-08-05T17:39:51.512Z,2.95
2022-08-05T17:44:58.806Z,4.50
2022-08-05T17:50:10.598Z,2.90
2022-08-05T17:55:14.015Z,5.72
2022-08-05T18:00:18.749Z,3.13
2022-08-05T18:05:23.291Z,2.65
2022-08-05T18:10:26.167Z,3.80
2022-08-05T18:15:31.215Z,4.57
2022-08-05T18:20:39.318Z,3.17
2022-08-05T18:25:45.230Z,2.83
2022-08-05T18:30:51.291Z,2.50
2022-08-05T18:36:03.944Z,2.70
2022-08-05T18:46:31.510Z,2.70
2022-08-05T18:52:04.278Z,3.00
2022-08-05T18:57:14.983Z,2.60
2022-08-05T19:02:27.079Z,2.95
2022-08-05T19:07:45.174Z,2.70
2022-08-05T19:12:49.728Z,2.67
2022-08-05T19:18:08.642Z,2.93
2022-08-05T19:24:05.881Z,2.80
2022-08-05T19:28:41.590Z,3.10
2022-08-05T19:33:48.493Z,2.85
2022-08-05T19:39:01.921Z,2.92
2022-08-05T19:44:12.923Z,2.55
2022-08-05T19:49:17.789Z,3.08
2022-08-05T19:54:29.492Z,2.63
2022-08-05T19:59:56.456Z,2.70
2022-08-05T20:04:58.677Z,2.80
2022-08-05T20:10:11.424Z,3.20
2022-08-05T20:15:23.421Z,3.47
2022-08-05T20:20:44.202Z,2.70
2022-08-05T20:25:49.220Z,3.03
2022-08-05T20:30:56.271Z,3.53
2022-08-05T20:41:04.674Z,5.00
2022-08-05T20:46:18.428Z,2.60
2022-08-05T20:51:28.139Z,3.03
2022-08-05T20:56:40.196Z,3.72
2022-08-05T21:06:48.937Z,2.97
2022-08-05T21:12:09.282Z,4.18
2022-08-05T21:17:14.277Z,4.10
2022-08-05T21:22:18.536Z,3.60
2022-08-05T21:27:28.015Z,3.25
2022-08-05T21:32:41.722Z,4.13
2022-08-05T21:42:59.252Z,3.25
2022-08-05T21:48:06.552Z,3.75
2022-08-05T21:53:16.663Z,3.58
2022-08-05T21:58:24.935Z,3.65
2022-08-05T22:03:52.034Z,3.58
2022-08-05T22:08:56.062Z,4.00
2022-08-05T22:14:32.517Z,3.60
2022-08-05T22:20:03.033Z,3.47
2022-08-05T22:25:04.590Z,3.28
2022-08-05T22:35:20.087Z,3.10
2022-08-05T22:40:26.908Z,2.95
2022-08-05T22:45:34.930Z,3.55
2022-08-05T22:50:40.031Z,3.70
2022-08-05T22:55:56.930Z,3.53
2022-08-05T23:01:03.472Z,3.90
2022-08-05T23:06:09.458Z,3.38
2022-08-05T23:11:13.057Z,3.80
2022-08-05T23:16:26.028Z,3.45
2022-08-05T23:21:42.832Z,3.75
2022-08-05T23:31:55.052Z,3.97
2022-08-05T23:36:59.258Z,3.80
2022-08-05T23:42:03.627Z,3.30
2022-08-05T23:47:14.570Z,3.45
2022-08-05T23:52:29.248Z,3.40
2022-08-05T23:57:33.746Z,3.45
